createdAt,value
2018-06-25T00:02:05.298Z,57.90
2018-06-25T00:05:30.000Z,57.70
2018-06-25T00:08:54.637Z,57.80
2018-06-25T00:12:19.325Z,58.10
2018-06-25T00:15:44.012Z,58.30
2018-06-25T00:19:08.706Z,58.90
2018-06-25T00:22:33.360Z,58.40
2018-06-25T00:25:58.010Z,58.80
2018-06-25T00:29:22.704Z,59.10
2018-06-25T00:32:47.410Z,59.20
2018-06-25T00:36:12.094Z,59.40
2018-06-25T00:39:36.842Z,59.50
2018-06-25T00:43:01.585Z,59.50
2018-06-25T00:46:27.260Z,59.60
2018-06-25T00:49:52.068Z,59.90
2018-06-25T00:53:16.748Z,59.80
2018-06-25T00:56:41.398Z,59.90
2018-06-25T01:00:06.132Z,59.70
2018-06-25T01:03:30.823Z,60.40
2018-06-25T01:06:55.514Z,59.80
2018-06-25T01:10:21.168Z,60.90
2018-06-25T01:13:45.832Z,60.80
2018-06-25T01:17:10.952Z,62.40
2018-06-25T01:20:35.725Z,62.00
2018-06-25T01:24:00.520Z,62.70
2018-06-25T01:27:25.178Z,62.90
2018-06-25T01:30:49.998Z,63.10
2018-06-25T01:34:14.587Z,64.00
2018-06-25T01:37:39.304Z,64.00
2018-06-25T01:41:04.058Z,63.50
2018-06-25T01:44:28.839Z,63.60
2018-06-25T01:47:53.471Z,63.10
2018-06-25T01:51:18.136Z,64.10
2018-06-25T01:54:42.904Z,63.10
2018-06-25T01:58:07.698Z,63.40
2018-06-25T02:01:32.384Z,63.00
2018-06-25T02:04:57.131Z,63.20
2018-06-25T02:08:21.729Z,63.10
2018-06-25T02:11:46.365Z,63.40
2018-06-25T02:15:11.343Z,63.90
2018-06-25T02:18:36.096Z,62.70
2018-06-25T02:22:00.710Z,62.50
2018-06-25T02:25:25.475Z,62.80
2018-06-25T02:28:50.166Z,62.60
2018-06-25T02:32:14.794Z,62.80
2018-06-25T02:35:39.442Z,63.00
2018-06-25T02:42:29.022Z,62.10
2018-06-25T02:52:42.267Z,62.40
2018-06-25T02:56:06.935Z,62.70
2018-06-25T02:59:31.567Z,62.80
2018-06-25T03:02:56.271Z,63.00
2018-06-25T03:06:20.963Z,63.20
2018-06-25T03:09:45.675Z,63.20
2018-06-25T03:13:10.335Z,63.70
2018-06-25T03:16:35.485Z,63.90
2018-06-25T03:20:00.189Z,64.20
2018-06-25T03:23:24.871Z,63.90
2018-06-25T03:26:49.617Z,64.20
2018-06-25T03:30:15.377Z,64.70
2018-06-25T03:33:40.078Z,64.40
2018-06-25T03:37:04.881Z,64.40
2018-06-25T03:40:29.518Z,64.60
2018-06-25T03:43:54.221Z,65.00
2018-06-25T03:47:18.856Z,65.00
2018-06-25T03:50:43.474Z,65.40
2018-06-25T03:54:08.131Z,65.70
2018-06-25T03:57:32.797Z,65.80
2018-06-25T04:00:57.627Z,65.90
2018-06-25T04:04:22.487Z,66.90
2018-06-25T04:07:47.486Z,67.10
2018-06-25T04:11:12.209Z,66.20
2018-06-25T04:14:36.869Z,66.60
2018-06-25T04:18:01.697Z,67.10
2018-06-25T04:21:26.452Z,67.40
2018-06-25T04:24:51.165Z,67.60
2018-06-25T04:28:15.968Z,67.50
2018-06-25T04:31:40.762Z,67.50
2018-06-25T04:35:05.477Z,68.10
2018-06-25T04:38:30.328Z,67.60
2018-06-25T04:41:55.176Z,67.70
2018-06-25T04:45:20.961Z,67.60
2018-06-25T04:48:45.722Z,67.70
2018-06-25T04:52:10.487Z,67.70
2018-06-25T04:55:35.350Z,67.50
2018-06-25T04:59:00.166Z,67.10
2018-06-25T05:02:24.995Z,67.20
2018-06-25T05:05:49.693Z,66.50
2018-06-25T05:09:14.514Z,66.40
2018-06-25T05:19:27.962Z,66.10
2018-06-25T05:22:52.777Z,66.10
2018-06-25T05:26:17.484Z,65.90
2018-06-25T05:29:42.176Z,66.10
2018-06-25T05:33:07.464Z,66.20
2018-06-25T05:36:32.170Z,66.70
2018-06-25T05:39:56.964Z,66.70
2018-06-25T05:43:21.668Z,67.00
2018-06-25T05:46:46.412Z,67.20
2018-06-25T05:50:11.260Z,67.80
2018-06-25T05:53:36.128Z,67.80
2018-06-25T05:57:00.832Z,67.80
2018-06-25T06:00:25.555Z,68.00
2018-06-25T06:03:50.224Z,68.00
2018-06-25T06:07:14.985Z,68.90
2018-06-25T06:10:39.766Z,68.10
2018-06-25T06:14:05.311Z,68.90
2018-06-25T06:17:30.161Z,68.00
2018-06-25T06:20:54.918Z,68.30
2018-06-25T06:24:19.744Z,68.30
2018-06-25T06:27:44.385Z,67.30
2018-06-25T06:31:09.072Z,67.30
2018-06-25T06:34:33.845Z,67.10
2018-06-25T06:37:58.591Z,67.40
2018-06-25T06:41:23.354Z,67.50
2018-06-25T06:44:48.112Z,68.20
2018-06-25T06:48:12.807Z,68.30
2018-06-25T06:51:37.397Z,68.30
2018-06-25T06:55:02.101Z,68.40
2018-06-25T06:58:26.891Z,68.90
2018-06-25T07:01:51.594Z,69.10
2018-06-25T07:05:16.383Z,69.20
2018-06-25T07:08:41.350Z,68.80
2018-06-25T07:12:06.075Z,69.10
2018-06-25T07:15:30.901Z,69.40
2018-06-25T07:18:56.360Z,69.00
2018-06-25T07:22:21.017Z,69.10
2018-06-25T07:25:45.805Z,69.30
2018-06-25T07:29:10.501Z,69.40
2018-06-25T07:32:35.357Z,68.80
2018-06-25T07:36:00.124Z,69.00
2018-06-25T07:39:24.921Z,68.20
2018-06-25T07:42:49.754Z,68.50
2018-06-25T07:46:14.703Z,68.50
2018-06-25T07:49:39.419Z,68.10
2018-06-25T07:53:04.185Z,67.40
2018-06-25T07:56:28.904Z,66.10
2018-06-25T07:59:53.623Z,67.60
2018-06-25T08:03:18.310Z,66.60
2018-06-25T08:06:43.205Z,67.50
2018-06-25T08:10:08.097Z,68.70
2018-06-25T08:16:57.360Z,67.10
2018-06-25T08:20:22.184Z,66.60
2018-06-25T08:23:46.843Z,66.60
2018-06-25T08:27:11.511Z,66.60
2018-06-25T08:30:36.239Z,66.60
2018-06-25T08:34:01.244Z,66.70
2018-06-25T08:37:25.925Z,67.50
2018-06-25T08:40:50.635Z,67.30
2018-06-25T08:44:15.343Z,67.30
2018-06-25T08:47:39.995Z,67.10
2018-06-25T08:51:05.378Z,67.60
2018-06-25T08:54:30.092Z,67.70
2018-06-25T08:57:54.753Z,66.50
2018-06-25T09:01:19.723Z,66.10
2018-06-25T09:04:44.469Z,65.20
2018-06-25T09:08:09.272Z,65.40
2018-06-25T09:11:33.931Z,63.80
2018-06-25T09:14:58.635Z,64.20
2018-06-25T09:18:23.994Z,64.40
2018-06-25T09:21:48.677Z,63.80
2018-06-25T09:25:13.349Z,63.30
2018-06-25T09:28:38.113Z,62.70
2018-06-25T09:32:02.799Z,61.00
2018-06-25T09:35:27.483Z,61.70
2018-06-25T09:38:52.129Z,60.20
2018-06-25T09:42:16.803Z,59.10
2018-06-25T09:45:41.536Z,59.10
2018-06-25T09:49:06.287Z,58.10
2018-06-25T09:52:30.925Z,58.00
2018-06-25T09:55:55.635Z,58.50
2018-06-25T09:59:20.245Z,59.10
2018-06-25T10:02:44.945Z,58.50
2018-06-25T10:06:09.629Z,57.60
2018-06-25T10:09:35.237Z,57.30
2018-06-25T10:12:59.949Z,56.50
2018-06-25T10:16:24.853Z,56.30
2018-06-25T10:19:49.561Z,56.50
2018-06-25T10:23:14.295Z,57.30
2018-06-25T10:26:39.109Z,57.50
2018-06-25T10:30:03.945Z,57.30
2018-06-25T10:33:28.805Z,56.40
2018-06-25T10:36:53.538Z,56.00
2018-06-25T10:40:18.243Z,53.50
2018-06-25T10:43:42.911Z,52.20
2018-06-25T10:47:07.677Z,51.60
2018-06-25T10:50:32.447Z,51.00
2018-06-25T10:53:57.116Z,51.20
2018-06-25T10:57:22.351Z,50.70
2018-06-25T11:00:47.116Z,50.90
2018-06-25T11:04:11.887Z,52.00
2018-06-25T11:07:36.983Z,53.00
2018-06-25T11:11:01.830Z,53.10
2018-06-25T11:14:26.490Z,53.90
2018-06-25T11:17:51.181Z,52.50
2018-06-25T11:21:16.061Z,51.90
2018-06-25T11:28:05.580Z,51.90
2018-06-25T11:31:30.302Z,52.60
2018-06-25T11:34:54.945Z,52.80
2018-06-25T11:38:19.701Z,51.40
2018-06-25T11:41:44.455Z,51.10
2018-06-25T11:45:09.089Z,50.40
2018-06-25T11:48:33.787Z,50.10
2018-06-25T11:51:58.773Z,50.00
2018-06-25T11:55:24.820Z,49.30
2018-06-25T11:58:49.625Z,48.20
2018-06-25T12:02:14.465Z,48.70
2018-06-25T12:05:39.119Z,49.50
2018-06-25T12:09:04.088Z,49.40
2018-06-25T12:12:28.795Z,49.20
2018-06-25T12:15:54.216Z,50.30
2018-06-25T12:19:18.861Z,50.30
2018-06-25T12:22:43.601Z,50.00
2018-06-25T12:26:08.251Z,49.90
2018-06-25T12:29:33.071Z,50.00
2018-06-25T12:32:57.867Z,49.70
2018-06-25T12:36:22.507Z,49.00
2018-06-25T12:39:47.308Z,47.40
2018-06-25T12:43:12.108Z,48.20
2018-06-25T12:46:37.123Z,48.30
2018-06-25T12:50:01.778Z,49.30
2018-06-25T12:53:26.422Z,50.00
2018-06-25T13:00:15.613Z,50.30
2018-06-25T13:03:40.235Z,50.80
2018-06-25T13:07:05.031Z,49.60
2018-06-25T13:10:29.685Z,50.30
2018-06-25T13:13:54.335Z,50.30
2018-06-25T13:17:18.936Z,49.30
2018-06-25T13:20:43.686Z,47.60
2018-06-25T13:27:32.613Z,45.50
2018-06-25T13:30:57.253Z,46.70
2018-06-25T13:34:21.940Z,47.50
2018-06-25T13:37:46.686Z,46.20
2018-06-25T13:41:11.359Z,46.30
2018-06-25T13:44:36.301Z,44.40
2018-06-25T13:51:25.279Z,43.80
2018-06-25T13:54:50.021Z,43.90
2018-06-25T13:58:14.766Z,44.60
2018-06-25T14:01:39.876Z,45.90
2018-06-25T14:08:28.997Z,46.70
2018-06-25T14:11:53.717Z,46.50
2018-06-25T14:15:18.411Z,45.20
2018-06-25T14:18:43.170Z,44.70
2018-06-25T14:22:07.882Z,44.20
2018-06-25T14:25:36.557Z,44.10
2018-06-25T14:29:01.287Z,41.60
2018-06-25T14:32:31.239Z,42.20
2018-06-25T14:35:55.882Z,40.80
2018-06-25T14:39:20.654Z,41.10
2018-06-25T14:42:45.324Z,42.80
2018-06-25T14:46:10.161Z,44.10
2018-06-25T14:49:34.841Z,44.10
2018-06-25T14:52:59.471Z,42.20
2018-06-25T14:56:24.160Z,42.00
2018-06-25T15:03:13.091Z,41.90
2018-06-25T15:06:37.851Z,41.50
2018-06-25T15:10:02.613Z,41.00
2018-06-25T15:13:27.405Z,40.20
2018-06-25T15:20:16.454Z,40.90
2018-06-25T15:23:41.135Z,41.20
2018-06-25T15:27:06.119Z,40.80
2018-06-25T15:30:30.720Z,37.70
2018-06-25T15:40:45.051Z,37.30
2018-06-25T15:44:09.853Z,38.20
2018-06-25T15:50:58.878Z,36.80
2018-06-25T15:54:23.639Z,35.70
2018-06-25T15:57:48.315Z,34.20
2018-06-25T16:01:13.599Z,34.40
2018-06-25T16:04:38.333Z,34.40
2018-06-25T16:08:03.014Z,34.70
2018-06-25T16:18:16.456Z,33.90
2018-06-25T16:21:41.191Z,33.90
2018-06-25T16:25:06.570Z,34.40
2018-06-25T16:28:31.313Z,35.10
2018-06-25T16:31:56.224Z,35.40
2018-06-25T16:35:20.883Z,35.40
2018-06-25T16:38:45.520Z,34.20
2018-06-25T16:42:10.233Z,34.40
2018-06-25T16:45:34.907Z,34.80
2018-06-25T16:48:59.711Z,33.90
2018-06-25T16:52:24.400Z,34.10
2018-06-25T16:55:50.037Z,33.40
2018-06-25T16:59:14.783Z,32.80
2018-06-25T17:02:39.474Z,33.00
2018-06-25T17:09:28.583Z,33.30
2018-06-25T17:12:53.217Z,34.10
2018-06-25T17:16:18.219Z,34.10
2018-06-25T17:23:07.625Z,34.30
2018-06-25T17:33:20.964Z,34.30
2018-06-25T17:40:10.096Z,32.90
2018-06-25T17:43:35.000Z,33.90
2018-06-25T17:47:00.335Z,34.30
2018-06-25T17:50:27.149Z,34.30
2018-06-25T17:53:52.049Z,34.40
2018-06-25T17:57:16.938Z,34.30
2018-06-25T18:07:30.947Z,35.70
2018-06-25T18:10:56.032Z,35.80
2018-06-25T18:14:21.723Z,35.70
2018-06-25T18:17:46.421Z,36.20
2018-06-25T18:21:11.277Z,37.10
2018-06-25T18:24:35.959Z,37.80
2018-06-25T18:28:00.830Z,38.00
2018-06-25T18:31:25.635Z,37.00
2018-06-25T18:34:50.411Z,37.20
2018-06-25T18:41:40.863Z,37.20
2018-06-25T18:48:30.069Z,39.70
2018-06-25T18:51:54.787Z,39.70
2018-06-25T18:55:19.577Z,39.90
2018-06-25T18:58:44.436Z,40.20
2018-06-25T19:02:09.160Z,40.80
2018-06-25T19:05:34.028Z,40.90
2018-06-25T19:08:59.771Z,41.50
2018-06-25T19:12:24.517Z,41.90
2018-06-25T19:15:49.294Z,42.70
2018-06-25T19:19:14.201Z,43.30
2018-06-25T19:26:06.213Z,44.60
2018-06-25T19:29:31.073Z,45.10
2018-06-25T19:32:55.769Z,45.50
2018-06-25T19:36:21.035Z,46.00
2018-06-25T19:39:45.776Z,46.30
2018-06-25T19:43:10.477Z,47.30
2018-06-25T19:46:35.250Z,47.10
2018-06-25T19:49:59.972Z,47.50
2018-06-25T19:53:24.677Z,48.00
2018-06-25T19:56:49.449Z,48.50
2018-06-25T20:00:14.224Z,48.90
2018-06-25T20:03:38.881Z,49.30
2018-06-25T20:07:03.607Z,49.80
2018-06-25T20:10:28.583Z,50.10
2018-06-25T20:13:53.318Z,50.80
2018-06-25T20:17:18.289Z,51.10
2018-06-25T20:20:45.157Z,52.10
2018-06-25T20:30:58.860Z,52.30
2018-06-25T20:34:24.295Z,52.60
2018-06-25T20:37:49.032Z,53.20
2018-06-25T20:44:38.173Z,54.10
2018-06-25T20:48:02.880Z,55.10
2018-06-25T20:51:27.628Z,55.70
2018-06-25T20:54:52.260Z,55.80
2018-06-25T20:58:16.895Z,56.50
2018-06-25T21:05:06.278Z,57.10
2018-06-25T21:08:30.918Z,57.20
2018-06-25T21:11:55.542Z,58.10
2018-06-25T21:15:20.167Z,58.50
2018-06-25T21:18:44.913Z,58.00
2018-06-25T21:22:09.626Z,58.30
2018-06-25T21:25:34.490Z,58.30
2018-06-25T21:28:59.206Z,58.60
2018-06-25T21:32:23.950Z,59.20
2018-06-25T21:35:48.694Z,59.60
2018-06-25T21:39:13.471Z,59.60
2018-06-25T21:42:38.097Z,60.70
2018-06-25T21:46:02.757Z,60.50
2018-06-25T21:49:27.590Z,61.10
2018-06-25T21:52:52.279Z,60.60
2018-06-25T21:56:16.949Z,61.30
2018-06-25T21:59:41.605Z,62.00
2018-06-25T22:03:06.294Z,62.30
2018-06-25T22:06:30.999Z,62.30
2018-06-25T22:13:20.033Z,62.50
2018-06-25T22:16:44.751Z,62.90
2018-06-25T22:20:09.539Z,62.80
2018-06-25T22:23:34.339Z,63.10
2018-06-25T22:26:59.322Z,63.70
2018-06-25T22:30:24.291Z,64.50
2018-06-25T22:37:13.447Z,64.20
2018-06-25T22:40:39.179Z,65.30
2018-06-25T22:44:14.750Z,64.90
2018-06-25T22:47:39.430Z,65.00
2018-06-25T22:51:04.154Z,66.20
2018-06-25T22:54:28.817Z,66.30
2018-06-25T22:57:53.878Z,66.40
2018-06-25T23:01:18.569Z,66.50
2018-06-25T23:04:43.227Z,66.80
2018-06-25T23:11:32.179Z,67.00
2018-06-25T23:14:56.816Z,67.10
2018-06-25T23:18:21.423Z,67.40
2018-06-25T23:21:46.057Z,67.70
2018-06-25T23:25:10.726Z,68.30
2018-06-25T23:28:35.427Z,68.60
2018-06-25T23:32:00.126Z,68.30
2018-06-25T23:35:24.847Z,68.10
2018-06-25T23:38:49.527Z,69.90
2018-06-25T23:42:14.237Z,68.10
2018-06-25T23:45:38.983Z,68.10
2018-06-25T23:49:03.744Z,68.70
2018-06-25T23:52:28.429Z,69.50
2018-06-25T23:55:53.061Z,69.50
2018-06-25T23:59:27.221Z,69.20
